• Join FlightAware (Why Join?)
  • Login
  • US Flag 
02:54PM EDT


 

Airport Tracker/Info


-or-


 

Live Flight TrackerFlight Track Log ✈ N8591S ✈ 11-May-2013 ✈ KBWG - KEAU

Flight Track Log - Related Links

Times and Time Zones

All times are in EDT time to prevent confusion due to time zone crossing. See the N8591S flight status page for this flight to view local times or setup timezone preferences in your user account.

Time Position Orientation Groundspeed Altitude Reporting Facility
EDT Latitude Longitude Course Direction KTS MPH feet Rate Location/Type
02:18PM 36.9994 -86.4431 337° Northwest 85 98 1,800  Level Indianapolis Center
02:18PM 37.0183 -86.4544 334° Northwest 135 155 1,800 360 Level Memphis Center
02:19PM 37.0397 -86.4692 331° Northwest 107 123 2,500 600 Climbing Memphis Center
02:20PM 37.0631 -86.4836 334° Northwest 95 109 3,100 600 Climbing Memphis Center
02:21PM 37.0864 -86.4981 334° Northwest 95 109 3,700 420 Climbing Memphis Center
02:22PM 37.1119 -86.5175 329° Northwest 100 115 4,000 120 Climbing Memphis Center
02:23PM 37.0832 -86.4922 337° Northwest  Level FlightAware Approximate
02:23PM 37.1394 -86.5292 341° North 100 115 4,000  Level Memphis Center
02:24PM 37.1714 -86.5511 331° Northwest 100 115 4,000  Level Memphis Center
02:27PM 37.2461 -86.5900 337° Northwest 116 133 4,000  Level Indianapolis Center
02:28PM 37.2747 -86.6081 333° Northwest 117 135 4,100  Climbing Indianapolis Center
02:29PM 37.3047 -86.6236 338° Northwest 118 136 4,000 -60 Descending Indianapolis Center
02:30PM 37.3344 -86.6411 335° Northwest 116 133 4,000  Level Indianapolis Center
02:31PM 37.3647 -86.6583 336° Northwest 119 137 4,000  Level Indianapolis Center
02:32PM 37.3939 -86.6764 334° Northwest 117 135 4,000  Level Indianapolis Center
02:33PM 37.4289 -86.6958 336° Northwest 115 132 4,000  Level Indianapolis Center
02:34PM 37.4589 -86.7125 336° Northwest 117 135 4,100  Climbing Indianapolis Center
02:35PM 37.4878 -86.7269 338° Northwest 113 130 4,000  Descending Indianapolis Center
02:36PM 37.5183 -86.7450 335° Northwest 118 136 4,100  Climbing Indianapolis Center
02:37PM 37.5472 -86.7608 337° Northwest 115 132 4,100 -60 Level Indianapolis Center
02:38PM 37.5778 -86.7781 336° Northwest 119 137 4,000 -60 Descending Indianapolis Center
02:39PM 37.6061 -86.7958 334° Northwest 115 132 4,000  Level Indianapolis Center
02:40PM 37.6372 -86.8111 339° North 118 136 4,100  Climbing Indianapolis Center
02:41PM 37.6658 -86.8269 336° Northwest 115 132 4,000  Descending Indianapolis Center
02:42PM 37.6958 -86.8450 335° Northwest 116 133 4,100  Climbing Indianapolis Center
02:43PM 37.7272 -86.8611 338° Northwest 120 138 4,000  Descending Indianapolis Center
02:44PM 37.7628 -86.8814 336° Northwest 118 136 4,100  Climbing Indianapolis Center
02:45PM 37.7936 -86.8983 337° Northwest 119 137 4,000 -60 Descending Indianapolis Center
02:46PM 37.8225 -86.9153 335° Northwest 117 135 4,000  Level Indianapolis Center
02:47PM 37.8533 -86.9333 335° Northwest 119 137 4,100  Climbing Indianapolis Center
02:48PM 37.8825 -86.9489 337° Northwest 117 135 4,100 -60 Level Indianapolis Center
02:49PM 37.9117 -86.9644 337° Northwest 115 132 4,000 -60 Descending Indianapolis Center
02:51PM 37.9411 -86.9803 337° Northwest 114 131 4,000  Level Indianapolis Center
02:52PM 37.9706 -86.9964 337° Northwest 114 131 4,100  Climbing Indianapolis Center
02:53PM 38.0000 -87.0136 335° Northwest 115 132 4,100 -60 Level Indianapolis Center
02:54PM 38.0292 -87.0311 335° Northwest 115 132 4,000 -60 Descending Indianapolis Center
02:55PM 38.0578 -87.0481 335° Northwest 114 131 4,000  Level Indianapolis Center
02:56PM 38.0925 -87.0681 336° Northwest 113 130 4,000  Level Indianapolis Center
02:57PM 38.1211 -87.0850 335° Northwest 113 130 4,100  Climbing Indianapolis Center
02:58PM 38.1497 -87.1019 335° Northwest 113 130 4,100 -60 Level Indianapolis Center
02:59PM 38.1781 -87.1192 334° Northwest 113 130 4,000  Descending Indianapolis Center
03:00PM 38.2047 -87.1361 333° Northwest 109 125 4,100  Climbing Indianapolis Center
03:01PM 38.2333 -87.1533 335° Northwest 111 128 4,100 -60 Level Indianapolis Center
03:02PM 38.2611 -87.1708 334° Northwest 110 127 4,000 -60 Descending Indianapolis Center
03:03PM 38.2889 -87.1875 335° Northwest 109 125 4,000  Level Indianapolis Center
03:04PM 38.3178 -87.2056 334° Northwest 112 129 4,100  Climbing Indianapolis Center
03:05PM 38.3467 -87.2217 336° Northwest 112 129 4,100 -60 Level Indianapolis Center
03:06PM 38.3747 -87.2389 334° Northwest 111 128 4,000  Descending Indianapolis Center
03:07PM 38.4036 -87.2558 335° Northwest 112 129 4,200  Climbing Indianapolis Center
03:08PM 38.4333 -87.2717 337° Northwest 113 130 4,000 -120 Descending Indianapolis Center
03:09PM 38.4633 -87.2881 337° Northwest 116 133 4,000 420 Level Indianapolis Center
03:10PM 38.4947 -87.3067 335° Northwest 109 125 4,900 720 Climbing Indianapolis Center
03:11PM 38.5153 -87.3178 337° Northwest 95 109 5,500 480 Climbing Indianapolis Center
03:12PM 38.5353 -87.3278 339° North 82 94 6,000 240 Climbing Indianapolis Center
03:13PM 38.5597 -87.3403 338° Northwest 89 102 6,100  Climbing Indianapolis Center
03:14PM 38.5867 -87.3544 338° Northwest 100 115 6,000  Descending Indianapolis Center
03:15PM 38.6122 -87.3692 336° Northwest 102 117 6,100  Climbing Indianapolis Center
03:16PM 38.6389 -87.3839 337° Northwest 102 117 6,100  Level Indianapolis Center
03:17PM 38.6656 -87.3969 339° North 102 117 6,200  Climbing Indianapolis Center
03:18PM 38.6922 -87.4108 338° Northwest 103 119 6,100 -60 Descending Indianapolis Center
03:19PM 38.7186 -87.4253 337° Northwest 102 117 6,100  Level Indianapolis Center
03:20PM 38.7494 -87.4431 336° Northwest 101 116 6,100  Level Indianapolis Center
03:21PM 38.7767 -87.4583 336° Northwest 104 120 6,100  Level Indianapolis Center
03:22PM 38.8039 -87.4739 336° Northwest 106 122 6,100  Level Indianapolis Center
03:23PM 38.8306 -87.4900 335° Northwest 106 122 6,100 -60 Level Indianapolis Center
03:24PM 38.8578 -87.5050 337° Northwest 105 121 6,000 -60 Descending Indianapolis Center
03:25PM 38.8842 -87.5181 339° North 103 119 6,000  Level Indianapolis Center
03:26PM 38.9114 -87.5314 339° North 103 119 6,000 -60 Level Indianapolis Center
03:27PM 38.9347 -87.5503 328° Northwest 100 115 5,900  Descending Indianapolis Center
03:28PM 38.9594 -87.5675 332° Northwest 100 115 6,000  Climbing Indianapolis Center
03:29PM 38.9836 -87.5847 331° Northwest 99 114 6,000  Level Indianapolis Center
03:31PM 39.0142 -87.6064 331° Northwest 102 117 6,000  Level Indianapolis Center
03:32PM 39.0403 -87.6239 333° Northwest 104 120 6,000  Level Indianapolis Center
03:33PM 39.0667 -87.6403 334° Northwest 104 120 6,000 -60 Level Indianapolis Center
03:34PM 39.0928 -87.6578 333° Northwest 105 121 5,900  Descending Indianapolis Center
03:35PM 39.1200 -87.6725 337° Northwest 105 121 6,000  Climbing Indianapolis Center
03:36PM 39.1475 -87.6861 339° North 105 121 6,000  Level Indianapolis Center
03:37PM 39.1750 -87.6994 339° North 105 121 6,000  Level Indianapolis Center
03:38PM 39.2017 -87.7181 332° Northwest 107 123 6,000  Level Indianapolis Center
03:39PM 39.2267 -87.7375 329° Northwest 106 122 6,000  Level Indianapolis Center
03:40PM 39.2536 -87.7533 336° Northwest 105 121 6,000 -60 Level Indianapolis Center
03:41PM 39.2844 -87.7733 333° Northwest 104 120 5,900  Descending Indianapolis Center
03:42PM 39.3108 -87.7914 332° Northwest 106 122 6,000  Climbing Indianapolis Center
03:43PM 39.3375 -87.8097 332° Northwest 107 123 6,000  Level Indianapolis Center
03:44PM 39.3633 -87.8275 332° Northwest 106 122 6,000  Level Indianapolis Center
03:45PM 39.3903 -87.8447 334° Northwest 110 127 6,000  Level Indianapolis Center
03:46PM 39.4169 -87.8592 337° Northwest 106 122 6,000  Level Indianapolis Center
03:47PM 39.4444 -87.8775 333° Northwest 109 125 6,000  Level Indianapolis Center
03:48PM 39.4708 -87.8939 334° Northwest 107 123 6,100  Climbing Indianapolis Center
03:49PM 39.5044 -87.9156 334° Northwest 112 129 6,000 -60 Descending Indianapolis Center
03:50PM 39.5325 -87.9325 335° Northwest 112 129 6,000  Level Indianapolis Center
03:51PM 39.5592 -87.9486 335° Northwest 108 124 6,000  Level Indianapolis Center
03:52PM 39.5872 -87.9650 336° Northwest 109 125 6,000 -60 Level Indianapolis Center
03:53PM 39.6164 -87.9803 338° Northwest 112 129 5,900  Descending Indianapolis Center
03:54PM 39.6428 -87.9947 337° Northwest 107 123 6,000  Climbing Indianapolis Center
03:55PM 39.6692 -88.0108 335° Northwest 105 121 6,000  Level Indianapolis Center
03:56PM 39.7019 -88.0294 336° Northwest 107 123 6,000  Level Indianapolis Center
03:57PM 39.7306 -88.0442 338° Northwest 109 125 6,000  Level Indianapolis Center
03:58PM 39.7592 -88.0611 336° Northwest 112 129 6,000  Level Indianapolis Center
03:59PM 39.7881 -88.0769 337° Northwest 112 129 6,100  Climbing Indianapolis Center
04:00PM 39.8167 -88.0936 336° Northwest 112 129 6,000 -60 Descending Indianapolis Center
04:03PM 39.8842 -88.1306 337° Northwest 109 125 6,000  Level Chicago Center
04:04PM 39.9131 -88.1464 337° Northwest 111 128 6,100  Climbing Chicago Center
04:05PM 39.9414 -88.1650 333° Northwest 113 130 6,100  Level Chicago Center
04:06PM 39.9711 -88.1831 335° Northwest 117 135 6,100  Level Chicago Center
04:07PM 40.0061 -88.2056 334° Northwest 117 135 6,100  Level Chicago Center
04:08PM 40.0331 -88.2211 336° Northwest 110 127 6,100 -60 Level Chicago Center
04:09PM 40.0597 -88.2408 330° Northwest 108 124 6,000 -60 Descending Chicago Center
04:10PM 40.0856 -88.2600 330° Northwest 107 123 6,000  Level Chicago Center
04:11PM 40.1114 -88.2778 332° Northwest 106 122 6,100  Climbing Chicago Center
04:12PM 40.1364 -88.2964 330° Northwest 104 120 6,100 -60 Level Chicago Center
04:13PM 40.1628 -88.3142 333° Northwest 106 122 6,000  Descending Chicago Center
04:14PM 40.1903 -88.3306 336° Northwest 108 124 6,100  Climbing Chicago Center
04:15PM 40.2197 -88.3494 334° Northwest 105 121 6,100  Level Chicago Center
04:16PM 40.2456 -88.3653 335° Northwest 103 119 6,100  Level Chicago Center
04:17PM 40.2714 -88.3822 333° Northwest 103 119 6,100  Level Chicago Center
04:18PM 40.2956 -88.4000 331° Northwest 102 117 6,100  Level Chicago Center
04:19PM 40.3250 -88.4206 332° Northwest 100 115 6,100 -60 Level Chicago Center
04:20PM 40.3514 -88.4342 339° North 102 117 6,000  Descending Chicago Center
04:21PM 40.3769 -88.4481 338° Northwest 100 115 6,100  Climbing Chicago Center
04:22PM 40.4017 -88.4644 333° Northwest 100 115 6,100  Level Chicago Center
04:23PM 40.4264 -88.4803 334° Northwest 99 114 6,100 -60 Level Chicago Center
04:24PM 40.4525 -88.4964 335° Northwest 103 119 6,000  Descending Chicago Center
04:25PM 40.4814 -88.5128 337° Northwest 96 110 6,100  Climbing Chicago Center
04:26PM 40.5078 -88.5281 336° Northwest 101 116 6,100  Level Chicago Center
04:27PM 40.5331 -88.5431 336° Northwest 101 116 6,100 -60 Level Chicago Center
04:28PM 40.5567 -88.5597 332° Northwest 98 113 6,000  Descending Chicago Center
04:29PM 40.5817 -88.5742 336° Northwest 98 113 6,100  Climbing Chicago Center
04:30PM 40.6078 -88.5903 335° Northwest 101 116 6,100  Level Chicago Center
04:31PM 40.6347 -88.6086 333° Northwest 107 123 6,100  Level Chicago Center
04:32PM 40.6658 -88.6300 332° Northwest 106 122 6,100 -60 Level Chicago Center
04:33PM 40.6931 -88.6461 336° Northwest 108 124 6,000 -60 Descending Chicago Center
04:34PM 40.7175 -88.6597 337° Northwest 101 116 6,000  Level Chicago Center
04:36PM 40.7417 -88.6739 336° Northwest 97 112 6,100  Climbing Chicago Center
04:37PM 40.7683 -88.6900 335° Northwest 102 117 6,100  Level Chicago Center
04:38PM 40.7953 -88.7061 336° Northwest 105 121 6,100  Level Chicago Center
04:39PM 40.8261 -88.7253 335° Northwest 104 120 6,100  Level Chicago Center
04:40PM 40.8536 -88.7422 335° Northwest 107 123 6,100 -60 Level Chicago Center
04:41PM 40.8783 -88.7575 335° Northwest 104 120 6,000 -60 Descending Chicago Center
04:42PM 40.9056 -88.7733 336° Northwest 105 121 6,000  Level Chicago Center
04:43PM 40.9300 -88.7889 334° Northwest 102 117 6,000  Level Chicago Center
04:44PM 40.9558 -88.8039 336° Northwest 102 117 6,000  Level Chicago Center
04:45PM 40.9811 -88.8197 335° Northwest 102 117 6,100  Climbing Chicago Center
04:46PM 41.0100 -88.8378 335° Northwest 98 113 6,000  Descending Chicago Center
04:47PM 41.0342 -88.8528 335° Northwest 97 112 6,100  Climbing Chicago Center
04:48PM 41.0600 -88.8714 331° Northwest 103 119 6,000  Descending Chicago Center
04:49PM 41.0853 -88.8878 334° Northwest 103 119 6,100  Climbing Chicago Center
04:50PM 41.1086 -88.9031 334° Northwest 99 114 6,000 -60 Descending Chicago Center
04:51PM 41.1333 -88.9189 334° Northwest 98 113 6,000  Level Chicago Center
04:52PM 41.1572 -88.9353 333° Northwest 97 112 6,000  Level Chicago Center
04:53PM 41.1869 -88.9556 333° Northwest 99 114 6,000  Level Chicago Center
04:54PM 41.2125 -88.9722 334° Northwest 100 115 6,000  Level Chicago Center
04:55PM 41.2361 -88.9875 334° Northwest 99 114 6,000  Level Chicago Center
04:56PM 41.2606 -89.0036 334° Northwest 98 113 6,100  Climbing Chicago Center
04:57PM 41.2856 -89.0197 334° Northwest 98 113 6,000 -60 Descending Chicago Center
04:58PM 41.3103 -89.0367 333° Northwest 100 115 6,000  Level Chicago Center
04:59PM 41.3353 -89.0536 333° Northwest 100 115 6,100  Climbing Chicago Center
05:00PM 41.3653 -89.0761 331° Northwest 102 117 6,000  Descending Chicago Center
05:01PM 41.3900 -89.0931 333° Northwest 102 117 6,100  Climbing Chicago Center
05:02PM 41.4139 -89.1089 334° Northwest 97 112 6,000  Descending Chicago Center
05:03PM 41.4397 -89.1242 336° Northwest 100 115 6,100  Climbing Chicago Center
05:04PM 41.4661 -89.1392 337° Northwest 102 117 6,100  Level Chicago Center
05:05PM 41.4928 -89.1531 339° North 103 119 6,100  Level Chicago Center
05:06PM 41.5181 -89.1686 335° Northwest 102 117 6,100 -120 Level Chicago Center
05:07PM 41.5494 -89.1906 332° Northwest 104 120 5,900 -120 Descending Chicago Center
05:08PM 41.5756 -89.2061 336° Northwest 104 120 5,900  Level Chicago Center
05:09PM 41.5994 -89.2222 333° Northwest 99 114 5,900  Level Chicago Center
05:10PM 41.6250 -89.2394 333° Northwest 101 116 6,000  Climbing Chicago Center
05:11PM 41.6539 -89.2564 336° Northwest 109 125 6,000 -60 Level Chicago Center
05:12PM 41.6794 -89.2717 336° Northwest 105 121 5,900 -60 Descending Chicago Center
05:13PM 41.7025 -89.2875 333° Northwest 96 110 5,900  Level Chicago Center
05:14PM 41.7253 -89.3042 331° Northwest 94 108 5,900  Level Chicago Center
05:16PM 41.7553 -89.3250 333° Northwest 99 114 5,900  Level Chicago Center
05:17PM 41.7781 -89.3425 330° Northwest 97 112 6,000  Climbing Chicago Center
05:18PM 41.8011 -89.3611 329° Northwest 96 110 5,900  Descending Chicago Center
05:19PM 41.8253 -89.3783 332° Northwest 98 113 6,000  Climbing Chicago Center
05:20PM 41.8503 -89.3914 339° North 97 112 6,000  Level Chicago Center
05:21PM 41.8775 -89.4067 337° Northwest 103 119 6,000  Level Chicago Center
05:22PM 41.9042 -89.4247 333° Northwest 107 123 6,000  Level Chicago Center
05:23PM 41.9336 -89.4428 335° Northwest 100 115 6,100  Climbing Chicago Center
05:24PM 41.9575 -89.4617 330° Northwest 99 114 6,000 -60 Descending Chicago Center
05:25PM 41.9833 -89.4750 339° North 100 115 6,000  Level Chicago Center
05:26PM 42.0069 -89.4928 331° Northwest 99 114 6,000  Level Chicago Center
05:27PM 42.0322 -89.5067 338° Northwest 99 114 6,000  Level Chicago Center
05:28PM 42.0553 -89.5228 333° Northwest 95 109 6,000  Level Chicago Center
05:29PM 42.0839 -89.5447 330° Northwest 99 114 6,000 -60 Level Chicago Center
05:30PM 42.1100 -89.5636 332° Northwest 106 122 5,900 -60 Descending Chicago Center
05:31PM 42.1358 -89.5803 334° Northwest 105 121 5,900  Level Chicago Center
05:32PM 42.1597 -89.5942 337° Northwest 98 113 5,900  Level Chicago Center
05:33PM 42.1831 -89.6061 339° North 90 104 6,000  Climbing Chicago Center
05:34PM 42.2067 -89.6239 331° Northwest 96 110 6,000  Level Chicago Center
05:35PM 42.2308 -89.6408 333° Northwest 97 112 6,000 -60 Level Chicago Center
05:36PM 42.2547 -89.6556 335° Northwest 96 110 5,900  Descending Chicago Center
05:37PM 42.2794 -89.6731 332° Northwest 98 113 6,000  Climbing Chicago Center
05:38PM 42.3056 -89.6972 326° Northwest 97 112 5,900  Descending Chicago Center
05:39PM 42.3294 -89.7108 337° Northwest 95 109 6,000 -60 Climbing Chicago Center
05:40PM 42.3514 -89.7239 336° Northwest 96 110 5,800  Descending Chicago Center
05:41PM 42.3767 -89.7383 337° Northwest 99 114 6,000 60 Climbing Chicago Center
05:42PM 42.4058 -89.7586 333° Northwest 100 115 6,000 -60 Level Chicago Center
05:43PM 42.4322 -89.7775 332° Northwest 106 122 5,900  Descending Chicago Center
05:44PM 42.4575 -89.7958 332° Northwest 106 122 6,000  Climbing Chicago Center
05:45PM 42.4831 -89.8111 336° Northwest 103 119 6,000 -60 Level Chicago Center
05:46PM 42.5069 -89.8247 337° Northwest 97 112 5,900  Descending Chicago Center
05:47PM 42.5317 -89.8411 334° Northwest 98 113 6,000  Climbing Chicago Center
05:48PM 42.5544 -89.8575 332° Northwest 95 109 6,000 -60 Level Chicago Center
05:49PM 42.5836 -89.8819 328° Northwest 100 115 5,900 -60 Descending Chicago Center
05:50PM 42.6094 -89.8972 336° Northwest 103 119 5,900  Level Chicago Center
05:51PM 42.6369 -89.9125 338° Northwest 105 121 5,900  Level Chicago Center
05:52PM 42.6647 -89.9294 336° Northwest 108 124 6,000  Climbing Chicago Center
05:53PM 42.6903 -89.9461 334° Northwest 105 121 5,900 -60 Descending Chicago Center
05:54PM 42.7136 -89.9642 330° Northwest 101 116 5,900  Level Chicago Center
05:55PM 42.7433 -89.9842 334° Northwest 99 114 5,900  Level Chicago Center
05:56PM 42.7692 -90.0033 331° Northwest 104 120 6,000  Climbing Chicago Center
05:57PM 42.7939 -90.0222 331° Northwest 103 119 5,900 -60 Descending Chicago Center
05:59PM 42.8192 -90.0411 331° Northwest 105 121 5,900  Level Chicago Center
06:00PM 42.8417 -90.0603 328° Northwest 101 116 5,900  Level Chicago Center
06:01PM 42.8656 -90.0789 330° Northwest 99 114 5,900  Level Chicago Center
06:02PM 42.8942 -90.1019 329° Northwest 100 115 5,900  Level Chicago Center
06:03PM 42.9144 -90.1228 323° Northwest 97 112 6,000  Climbing Chicago Center
06:04PM 42.9381 -90.1331 342° North 92 106 6,000  Level Chicago Center
06:05PM 42.9614 -90.1422 344° North 88 101 6,100  Climbing Chicago Center
06:06PM 42.9831 -90.1572 333° Northwest 88 101 6,000 -60 Descending Chicago Center
06:07PM 43.0047 -90.1714 334° Northwest 87 100 6,000  Level Chicago Center
06:08PM 43.0294 -90.1861 336° Northwest 93 107 6,000  Level Chicago Center
06:09PM 43.0611 -90.2031 339° North 100 115 6,100  Climbing Chicago Center
06:10PM 43.0864 -90.2178 337° Northwest 100 115 6,000 -60 Descending Chicago Center
06:11PM 43.1108 -90.2331 335° Northwest 98 113 6,000  Level Chicago Center
06:12PM 43.1367 -90.2517 332° Northwest 98 113 6,000 -60 Level Chicago Center
06:13PM 43.1608 -90.2647 338° Northwest 95 109 5,900  Descending Chicago Center
06:14PM 43.1847 -90.2819 332° Northwest 96 110 6,100  Climbing Chicago Center
06:15PM 43.2103 -90.3022 330° Northwest 96 110 6,000 -60 Descending Chicago Center
06:16PM 43.2339 -90.3203 331° Northwest 98 113 6,000  Level Chicago Center
06:17PM 43.2597 -90.3372 334° Northwest 101 116 6,000  Level Chicago Center
06:18PM 43.2875 -90.3589 330° Northwest 108 124 6,000  Level Chicago Center
06:19PM 43.3133 -90.3783 331° Northwest 109 125 6,000  Level Chicago Center
06:20PM 43.3392 -90.3958 334° Northwest 106 122 6,000  Level Chicago Center
06:21PM 43.3728 -90.4147 338° Northwest 109 125 6,000  Level Chicago Center
06:22PM 43.4042 -90.4164 358° North 105 121 6,100  Climbing Minneapolis Center
06:23PM 43.4331 -90.4242 349° North 101 116 6,100  Level Minneapolis Center
06:24PM 43.4594 -90.4353 343° North 104 120 6,100  Level Minneapolis Center
06:25PM 43.4897 -90.4453 347° North 107 123 6,100 -60 Level Minneapolis Center
06:27PM 43.5193 -90.4822 318° Northwest  Level FlightAware Approximate
06:27PM 43.5478 -90.4647 318° Northwest 102 117 6,000  Level Minneapolis Center
06:28PM 43.5708 -90.4817 332° Northwest 97 112 6,100  Climbing Minneapolis Center
06:29PM 43.5972 -90.5003 333° Northwest 101 116 6,100 -60 Level Minneapolis Center
06:30PM 43.6231 -90.5158 336° Northwest 99 114 6,000 -60 Descending Minneapolis Center
06:31PM 43.6483 -90.5294 339° North 101 116 6,000  Level Minneapolis Center
06:32PM 43.6731 -90.5472 333° Northwest 96 110 6,000  Level Minneapolis Center
06:33PM 43.6983 -90.5653 333° Northwest 98 113 6,000  Level Minneapolis Center
06:34PM 43.7197 -90.5842 327° Northwest 95 109 6,000  Level Minneapolis Center
06:35PM 43.7433 -90.6075 324° Northwest 100 115 6,000  Level Minneapolis Center
06:36PM 43.7681 -90.6303 326° Northwest 102 117 6,000  Level Minneapolis Center
06:37PM 43.7936 -90.6483 333° Northwest 98 113 6,000  Level Minneapolis Center
06:39PM 43.8178 -90.6686 329° Northwest 98 113 6,000  Level Minneapolis Center
06:40PM 43.8400 -90.6864 330° Northwest 96 110 6,000  Level Minneapolis Center
06:41PM 43.8642 -90.7081 327° Northwest 98 113 6,000  Level Minneapolis Center
06:42PM 43.8886 -90.7297 327° Northwest 98 113 6,000  Level Minneapolis Center
06:43PM 43.9147 -90.7461 336° Northwest 99 114 6,000  Level Minneapolis Center
06:44PM 43.9394 -90.7625 334° Northwest 103 119 6,000  Level Minneapolis Center
06:45PM 43.9669 -90.7806 335° Northwest 105 121 6,000  Level Minneapolis Center
06:46PM 43.9933 -90.7989 333° Northwest 102 117 6,000  Level Minneapolis Center
06:47PM 44.0150 -90.8192 326° Northwest 97 112 6,000  Level Minneapolis Center
06:48PM 44.0392 -90.8411 327° Northwest 99 114 6,000  Level Minneapolis Center
06:49PM 44.0647 -90.8603 332° Northwest 99 114 6,000  Level Minneapolis Center
06:50PM 44.0908 -90.8789 333° Northwest 102 117 6,000  Level Minneapolis Center
06:51PM 44.1150 -90.8975 331° Northwest 103 119 6,000  Level Minneapolis Center
06:52PM 44.1411 -90.9167 332° Northwest 101 116 6,000 -180 Level Minneapolis Center
06:53PM 44.1672 -90.9378 330° Northwest 104 120 5,700 -360 Descending Minneapolis Center
06:54PM 44.1956 -90.9575 333° Northwest 108 124 5,300 -420 Descending Minneapolis Center
06:55PM 44.2214 -90.9778 331° Northwest 111 128 4,900 -420 Descending Minneapolis Center
06:56PM 44.2511 -91.0017 330° Northwest 117 135 4,500 -360 Descending Minneapolis Center
06:57PM 44.2778 -91.0225 331° Northwest 108 124 4,200 -300 Descending Minneapolis Center
06:58PM 44.3042 -91.0439 330° Northwest 105 121 4,000 -60 Descending Minneapolis Center
06:59PM 44.3292 -91.0622 332° Northwest 106 122 4,100  Climbing Minneapolis Center
07:00PM 44.3536 -91.0808 331° Northwest 98 113 4,100  Level Minneapolis Center
07:01PM 44.3783 -91.0989 332° Northwest 96 110 4,100  Level Minneapolis Center
07:02PM 44.4042 -91.1200 330° Northwest 109 125 4,100 -60 Level Minneapolis Center
07:03PM 44.4322 -91.1414 331° Northwest 111 128 4,000  Descending Minneapolis Center
07:04PM 44.4589 -91.1631 330° Northwest 108 124 4,100  Climbing Minneapolis Center
07:05PM 44.4844 -91.1833 330° Northwest 102 117 4,100  Level Minneapolis Center
07:06PM 44.5119 -91.2031 333° Northwest 111 128 4,100  Level Minneapolis Center
07:07PM 44.5397 -91.2256 330° Northwest 111 128 4,100  Level Minneapolis Center
07:08PM 44.5669 -91.2461 332° Northwest 107 123 4,100 -60 Level Minneapolis Center
07:09PM 44.5944 -91.2697 329° Northwest 109 125 4,000 -120 Descending Minneapolis Center